createdAt,value
2022-09-29T03:57:59.818Z,1.00
2022-09-29T04:01:02.238Z,1.90
2022-09-29T04:04:06.747Z,1.70
2022-09-29T04:07:08.971Z,1.80
2022-09-29T04:10:11.372Z,1.60
2022-09-29T04:13:19.027Z,1.58
2022-09-29T04:16:22.313Z,2.00
2022-09-29T04:19:24.937Z,1.15
2022-09-29T04:22:27.226Z,1.12
2022-09-29T04:25:29.288Z,1.70
2022-09-29T04:28:33.478Z,1.77
2022-09-29T04:31:35.566Z,1.15
2022-09-29T04:34:38.101Z,1.73
2022-09-29T04:37:40.108Z,1.70
2022-09-29T04:40:42.525Z,1.30
2022-09-29T04:43:44.613Z,1.23
2022-09-29T04:46:46.946Z,1.77
2022-09-29T04:49:48.987Z,1.87
2022-09-29T04:52:51.266Z,1.55
2022-09-29T04:55:53.445Z,2.05
2022-09-29T04:58:55.739Z,1.75
2022-09-29T05:01:58.311Z,1.95
2022-09-29T05:05:01.106Z,2.15
2022-09-29T05:08:04.349Z,1.95
2022-09-29T05:11:08.256Z,1.55
2022-09-29T05:14:12.790Z,1.35
2022-09-29T05:17:15.083Z,2.72
2022-09-29T05:20:17.243Z,1.17
2022-09-29T05:23:19.566Z,1.73
2022-09-29T05:26:21.690Z,1.92
2022-09-29T05:29:24.021Z,1.73
2022-09-29T05:32:26.182Z,2.33
2022-09-29T05:35:28.567Z,1.48
2022-09-29T05:38:30.585Z,2.83
2022-09-29T05:41:33.162Z,1.50
2022-09-29T05:44:35.192Z,2.65
2022-09-29T05:47:42.041Z,2.40
2022-09-29T05:50:44.099Z,4.18
2022-09-29T05:53:47.262Z,1.40
2022-09-29T05:56:49.529Z,2.05
2022-09-29T05:59:51.876Z,2.87
2022-09-29T06:02:53.957Z,1.80
2022-09-29T06:05:56.260Z,1.45
2022-09-29T06:08:59.144Z,2.87
2022-09-29T06:12:02.663Z,3.45
2022-09-29T06:15:05.851Z,2.47
2022-09-29T06:18:08.117Z,2.87
2022-09-29T06:21:13.118Z,2.58
2022-09-29T06:24:15.543Z,7.20
2022-09-29T06:27:17.719Z,6.75
2022-09-29T06:30:20.013Z,6.05
2022-09-29T06:33:22.245Z,6.87
2022-09-29T06:37:00.757Z,3.22
2022-09-29T06:40:10.105Z,3.62
2022-09-29T06:43:13.270Z,1.40
2022-09-29T06:46:15.348Z,2.65
2022-09-29T06:49:18.900Z,1.52
2022-09-29T06:52:21.691Z,0.88
2022-09-29T06:55:24.048Z,1.48
2022-09-29T06:58:26.497Z,1.40
2022-09-29T07:01:28.834Z,1.33
2022-09-29T07:04:30.873Z,0.98
2022-09-29T07:07:33.149Z,0.80
2022-09-29T07:10:35.307Z,0.88
2022-09-29T07:13:39.257Z,1.42
2022-09-29T07:16:43.228Z,1.95
2022-09-29T07:19:45.534Z,1.95
2022-09-29T07:22:47.706Z,0.70
2022-09-29T07:25:52.444Z,1.87
2022-09-29T07:28:54.754Z,0.60
2022-09-29T07:31:57.043Z,0.55
2022-09-29T07:34:59.915Z,1.30
2022-09-29T07:38:02.187Z,1.70
2022-09-29T07:41:08.581Z,1.10
2022-09-29T07:44:11.395Z,1.80
2022-09-29T07:47:13.823Z,2.12
2022-09-29T07:50:16.138Z,1.98
2022-09-29T07:53:18.734Z,2.15
2022-09-29T07:56:25.082Z,1.92
2022-09-29T07:59:27.689Z,2.75
2022-09-29T08:02:30.024Z,1.12
2022-09-29T08:05:34.050Z,1.67
2022-09-29T08:08:39.114Z,0.50
2022-09-29T08:11:43.322Z,0.57
2022-09-29T08:14:45.398Z,0.90
2022-09-29T08:17:47.705Z,0.45
2022-09-29T08:20:50.019Z,1.00
2022-09-29T08:23:52.520Z,1.15
2022-09-29T08:26:57.898Z,0.75
2022-09-29T08:30:00.514Z,1.15
2022-09-29T08:33:03.929Z,1.00
2022-09-29T08:36:14.844Z,0.93
2022-09-29T08:39:17.022Z,1.50
2022-09-29T08:42:25.244Z,1.05
2022-09-29T08:45:32.202Z,1.65
2022-09-29T08:48:53.842Z,1.08
2022-09-29T08:52:16.216Z,1.05
2022-09-29T08:55:22.031Z,0.93
2022-09-29T08:58:24.860Z,1.77
2022-09-29T09:02:13.910Z,1.37
2022-09-29T09:05:38.350Z,2.30
2022-09-29T09:08:43.427Z,2.47
2022-09-29T09:12:14.814Z,1.70
2022-09-29T09:15:32.686Z,1.60
2022-09-29T09:19:12.481Z,1.70
2022-09-29T09:22:43.444Z,2.17
2022-09-29T09:25:57.955Z,0.40
2022-09-29T09:29:14.895Z,0.62
2022-09-29T09:32:43.247Z,0.55
2022-09-29T09:35:58.582Z,0.52
2022-09-29T09:39:10.211Z,0.30
2022-09-29T09:42:19.937Z,0.60
2022-09-29T09:45:37.663Z,1.00
2022-09-29T09:52:04.591Z,0.20
2022-09-29T09:55:14.968Z,0.62
2022-09-29T09:58:43.671Z,0.60
2022-09-29T10:01:46.233Z,0.70
2022-09-29T10:04:52.058Z,0.73
2022-09-29T10:07:55.841Z,0.73
2022-09-29T10:10:59.917Z,0.52
2022-09-29T10:14:11.553Z,0.93
2022-09-29T10:17:16.345Z,1.35
2022-09-29T10:20:32.031Z,0.90
2022-09-29T10:23:35.834Z,0.20
2022-09-29T10:26:43.349Z,0.35
2022-09-29T10:29:52.425Z,0.30
2022-09-29T10:33:00.364Z,0.10
2022-09-29T10:36:08.986Z,0.10
2022-09-29T10:39:31.195Z,0.20
2022-09-29T10:42:38.361Z,0.35
2022-09-29T10:45:48.767Z,0.30
2022-09-29T10:49:24.529Z,0.20
2022-09-29T10:52:28.809Z,0.05
2022-09-29T10:55:36.433Z,0.10
2022-09-29T10:58:53.294Z,0.25
2022-09-29T11:02:01.843Z,0.10
2022-09-29T11:05:17.365Z,0.10
2022-09-29T11:08:25.717Z,0.03
2022-09-29T11:11:39.406Z,0.10
2022-09-29T11:14:42.914Z,0.37
2022-09-29T11:17:50.189Z,0.17
2022-09-29T11:21:03.994Z,0.15
2022-09-29T11:24:37.217Z,0.10
2022-09-29T11:28:02.449Z,0.00
2022-09-29T11:31:27.530Z,0.40
2022-09-29T11:34:29.858Z,0.22
2022-09-29T11:37:57.219Z,0.20
2022-09-29T11:41:23.169Z,0.33
2022-09-29T11:44:58.289Z,0.17
2022-09-29T11:48:21.851Z,0.10
2022-09-29T11:51:53.311Z,0.20
2022-09-29T11:55:05.458Z,0.57
2022-09-29T11:58:16.410Z,0.05
2022-09-29T12:01:37.573Z,0.20
2022-09-29T12:04:48.626Z,0.10
2022-09-29T12:08:01.440Z,0.10
2022-09-29T12:11:40.529Z,0.10
2022-09-29T12:14:40.619Z,0.15
2022-09-29T12:17:52.885Z,0.30
2022-09-29T12:20:57.864Z,0.30
2022-09-29T12:24:03.810Z,0.17
2022-09-29T12:27:14.228Z,0.10
2022-09-29T12:30:43.869Z,0.45
2022-09-29T12:33:52.321Z,0.13
2022-09-29T12:37:30.418Z,0.47
2022-09-29T12:40:41.367Z,0.08
2022-09-29T12:44:25.613Z,0.20
2022-09-29T12:47:50.042Z,0.10
2022-09-29T12:50:58.789Z,0.30
2022-09-29T12:54:20.345Z,0.22
2022-09-29T12:57:34.768Z,0.20
2022-09-29T13:00:39.805Z,0.20
2022-09-29T13:03:48.110Z,0.20
2022-09-29T13:07:10.042Z,0.10
2022-09-29T13:10:27.428Z,0.10
2022-09-29T13:14:06.825Z,0.10
2022-09-29T13:17:31.875Z,0.22
2022-09-29T13:20:43.655Z,0.00
2022-09-29T13:23:58.889Z,0.20
2022-09-29T13:27:10.618Z,0.25
2022-09-29T13:30:15.889Z,0.30
2022-09-29T13:33:24.544Z,0.62
2022-09-29T13:36:30.109Z,0.20
2022-09-29T13:39:33.380Z,0.20
2022-09-29T13:42:42.042Z,0.28
2022-09-29T13:45:44.961Z,0.20
2022-09-29T13:48:52.651Z,0.30
2022-09-29T13:52:23.273Z,0.47
2022-09-29T13:55:56.744Z,0.95
2022-09-29T13:59:01.650Z,0.80
2022-09-29T14:02:33.885Z,0.40
2022-09-29T14:05:37.982Z,0.40
2022-09-29T14:09:22.630Z,0.47
2022-09-29T14:12:27.805Z,0.20
2022-09-29T14:15:37.623Z,0.10
2022-09-29T14:18:52.370Z,0.35
2022-09-29T14:21:56.955Z,0.32
2022-09-29T14:25:08.333Z,0.20
2022-09-29T14:28:14.676Z,0.10
2022-09-29T14:31:22.168Z,0.40
2022-09-29T14:34:29.298Z,0.20
2022-09-29T14:37:32.369Z,0.55
2022-09-29T14:40:34.436Z,0.40
2022-09-29T14:43:48.134Z,0.40
2022-09-29T14:47:26.858Z,0.57
2022-09-29T14:51:19.937Z,0.30
2022-09-29T14:54:43.085Z,0.30
2022-09-29T14:58:07.595Z,0.62
2022-09-29T15:01:30.259Z,0.47
2022-09-29T15:04:38.998Z,0.70
2022-09-29T15:07:42.291Z,0.40
2022-09-29T15:10:44.624Z,0.30
2022-09-29T15:13:46.678Z,0.90
2022-09-29T15:17:20.069Z,0.85
2022-09-29T15:20:24.862Z,0.30
2022-09-29T15:23:38.912Z,1.08
2022-09-29T15:26:41.551Z,0.50
2022-09-29T15:29:49.093Z,0.30
2022-09-29T15:32:53.674Z,0.50
2022-09-29T15:35:59.345Z,0.52
2022-09-29T15:39:13.338Z,0.55
2022-09-29T15:42:19.431Z,0.30
2022-09-29T15:45:23.258Z,0.50
